createdAt,value
2022-09-03T00:03:31.283Z,11.60
2022-09-03T00:07:43.753Z,11.50
2022-09-03T00:11:55.242Z,11.50
2022-09-03T00:16:00.049Z,11.40
2022-09-03T00:20:07.535Z,11.40
2022-09-03T00:24:15.087Z,11.30
2022-09-03T00:28:25.991Z,11.30
2022-09-03T00:32:41.606Z,11.30
2022-09-03T00:36:46.828Z,11.20
2022-09-03T00:41:03.009Z,11.20
2022-09-03T00:45:18.727Z,11.20
2022-09-03T00:49:34.588Z,11.20
2022-09-03T00:53:46.043Z,11.10
2022-09-03T00:58:03.723Z,11.10
2022-09-03T01:02:19.088Z,11.00
2022-09-03T01:06:28.890Z,11.00
2022-09-03T01:10:44.681Z,10.90
2022-09-03T01:15:01.740Z,10.90
2022-09-03T01:19:22.775Z,10.90
2022-09-03T01:23:45.861Z,10.80
2022-09-03T01:28:03.233Z,10.80
2022-09-03T01:32:15.732Z,10.80
2022-09-03T01:36:28.301Z,10.70
2022-09-03T01:40:40.114Z,10.70
2022-09-03T01:45:12.973Z,10.70
2022-09-03T01:49:22.952Z,10.60
2022-09-03T01:53:42.109Z,10.60
2022-09-03T01:57:56.274Z,10.60
2022-09-03T02:02:06.448Z,10.50
2022-09-03T02:06:10.362Z,10.50
2022-09-03T02:10:16.557Z,10.40
2022-09-03T02:14:20.535Z,10.40
2022-09-03T02:18:31.095Z,10.50
2022-09-03T02:22:35.395Z,10.40
2022-09-03T02:26:38.780Z,10.30
2022-09-03T02:30:43.457Z,10.30
2022-09-03T02:34:48.398Z,10.30
2022-09-03T02:38:51.923Z,10.30
2022-09-03T02:42:55.450Z,10.30
2022-09-03T02:47:01.340Z,10.20
2022-09-03T02:51:14.241Z,10.20
2022-09-03T02:55:19.098Z,10.10
2022-09-03T02:59:23.652Z,10.20
2022-09-03T03:03:27.524Z,10.10
2022-09-03T03:07:36.951Z,10.00
2022-09-03T03:11:40.433Z,10.00
2022-09-03T03:15:44.446Z,10.00
2022-09-03T03:19:47.909Z,10.00
2022-09-03T03:23:52.720Z,9.90
2022-09-03T03:27:57.215Z,9.90
2022-09-03T03:32:00.695Z,9.90
2022-09-03T03:36:07.076Z,9.90
2022-09-03T03:40:13.446Z,9.90
2022-09-03T03:44:17.799Z,9.80
2022-09-03T03:48:21.167Z,9.80
2022-09-03T03:52:25.781Z,9.80
2022-09-03T03:56:30.661Z,9.80
2022-09-03T04:00:37.927Z,9.80
2022-09-03T04:04:41.392Z,9.70
2022-09-03T04:08:46.724Z,9.70
2022-09-03T04:12:55.146Z,9.60
2022-09-03T04:16:58.552Z,9.70
2022-09-03T04:21:04.953Z,9.70
2022-09-03T04:25:09.089Z,9.70
2022-09-03T04:29:14.246Z,9.60
2022-09-03T04:33:17.721Z,9.70
2022-09-03T04:37:20.997Z,9.60
2022-09-03T04:41:26.111Z,9.70
2022-09-03T04:45:30.834Z,9.70
2022-09-03T04:49:34.773Z,9.70
2022-09-03T04:53:39.736Z,9.80
2022-09-03T04:57:43.321Z,9.80
2022-09-03T05:01:48.152Z,9.90
2022-09-03T05:05:55.624Z,10.00
2022-09-03T05:09:59.161Z,10.10
2022-09-03T05:14:03.116Z,10.30
2022-09-03T05:18:08.859Z,10.40
2022-09-03T05:22:12.363Z,10.60
2022-09-03T05:26:18.137Z,10.80
2022-09-03T05:30:22.953Z,11.00
2022-09-03T05:34:28.094Z,11.00
2022-09-03T05:38:31.666Z,11.10
2022-09-03T05:42:38.897Z,11.10
2022-09-03T05:46:42.236Z,11.20
2022-09-03T05:50:46.978Z,11.10
2022-09-03T05:54:50.209Z,11.20
2022-09-03T05:58:56.067Z,11.30
2022-09-03T06:03:00.227Z,11.30
2022-09-03T06:07:05.240Z,11.40
2022-09-03T06:11:09.547Z,11.50
2022-09-03T06:15:12.980Z,11.80
2022-09-03T06:19:16.492Z,12.00
2022-09-03T06:23:21.393Z,12.20
2022-09-03T06:27:24.744Z,12.40
2022-09-03T06:31:28.686Z,12.70
2022-09-03T06:35:32.302Z,12.80
2022-09-03T06:39:43.868Z,13.10
2022-09-03T06:43:47.547Z,13.20
2022-09-03T06:47:50.827Z,13.40
2022-09-03T06:51:54.085Z,13.60
2022-09-03T06:56:01.372Z,13.80
2022-09-03T07:00:05.677Z,14.00
2022-09-03T07:04:10.336Z,14.20
2022-09-03T07:08:13.618Z,14.40
2022-09-03T07:12:19.416Z,14.70
2022-09-03T07:16:24.573Z,15.00
2022-09-03T07:20:27.919Z,15.30
2022-09-03T07:24:31.258Z,15.70
2022-09-03T07:28:37.544Z,15.80
2022-09-03T07:32:41.115Z,16.10
2022-09-03T07:36:48.691Z,16.40
2022-09-03T07:40:59.906Z,16.60
2022-09-03T07:45:05.593Z,16.80
2022-09-03T07:49:09.669Z,16.90
2022-09-03T07:53:13.324Z,17.30
2022-09-03T07:57:16.543Z,17.70
2022-09-03T08:01:23.143Z,17.80
2022-09-03T08:05:26.694Z,18.20
2022-09-03T08:09:29.916Z,18.90
2022-09-03T08:13:34.120Z,19.00
2022-09-03T08:17:38.731Z,19.50
2022-09-03T08:21:42.749Z,19.80
2022-09-03T08:25:46.101Z,19.70
2022-09-03T08:29:49.749Z,19.80
2022-09-03T08:33:56.001Z,20.30
2022-09-03T08:38:01.864Z,20.70
2022-09-03T08:42:24.668Z,21.50
2022-09-03T08:46:34.941Z,23.00
2022-09-03T08:50:43.395Z,24.50
2022-09-03T08:54:48.295Z,26.40
2022-09-03T08:58:51.590Z,27.20
2022-09-03T09:03:07.828Z,28.40
2022-09-03T09:07:18.336Z,28.40
2022-09-03T09:11:33.542Z,27.30
2022-09-03T09:15:46.369Z,28.40
2022-09-03T09:19:59.967Z,27.80
2022-09-03T09:24:11.318Z,28.00
2022-09-03T09:28:20.270Z,26.70
2022-09-03T09:32:23.876Z,27.60
2022-09-03T09:36:28.318Z,28.60
2022-09-03T09:40:35.734Z,29.40
2022-09-03T09:44:39.860Z,29.70
2022-09-03T09:48:51.858Z,29.50
2022-09-03T09:53:05.369Z,29.10
2022-09-03T09:57:18.387Z,30.00
2022-09-03T10:01:26.024Z,29.90
2022-09-03T10:05:33.718Z,28.80
2022-09-03T10:09:36.948Z,29.40
2022-09-03T10:13:45.185Z,30.20
2022-09-03T10:17:57.621Z,30.90
2022-09-03T10:22:08.577Z,30.00
2022-09-03T10:26:15.311Z,30.00
2022-09-03T10:30:20.154Z,28.50
2022-09-03T10:34:35.054Z,27.70
2022-09-03T10:38:38.718Z,27.50
2022-09-03T10:42:47.916Z,28.00
2022-09-03T10:47:04.292Z,28.60
2022-09-03T10:51:12.812Z,28.60
2022-09-03T10:55:24.612Z,29.70
2022-09-03T10:59:41.069Z,31.70
2022-09-03T11:03:49.540Z,31.90
2022-09-03T11:07:59.247Z,32.10
2022-09-03T11:12:07.749Z,32.30
2022-09-03T11:16:20.162Z,33.60
2022-09-03T11:20:26.962Z,34.30
2022-09-03T11:24:33.446Z,33.20
2022-09-03T11:28:45.497Z,31.20
2022-09-03T11:32:55.530Z,27.90
2022-09-03T11:37:19.843Z,27.30
2022-09-03T11:41:27.735Z,30.30
2022-09-03T11:45:37.902Z,32.90
2022-09-03T11:49:47.136Z,34.40
2022-09-03T11:53:59.716Z,33.40
2022-09-03T11:58:14.261Z,32.30
2022-09-03T12:02:28.185Z,34.20
2022-09-03T12:06:51.970Z,33.70
2022-09-03T12:11:06.189Z,31.80
2022-09-03T12:15:23.290Z,33.20
2022-09-03T12:19:33.501Z,34.30
2022-09-03T12:23:42.294Z,34.90
2022-09-03T12:27:49.556Z,35.00
2022-09-03T12:31:52.914Z,36.00
2022-09-03T12:36:00.106Z,35.10
2022-09-03T12:40:05.735Z,36.40
2022-09-03T12:44:13.729Z,35.10
2022-09-03T12:48:18.083Z,35.30
2022-09-03T12:52:26.365Z,35.10
2022-09-03T12:56:34.991Z,35.00
2022-09-03T13:00:43.920Z,34.60
2022-09-03T13:04:48.741Z,34.80
2022-09-03T13:08:55.313Z,34.20
2022-09-03T13:13:05.467Z,35.00
2022-09-03T13:17:33.056Z,34.90
2022-09-03T13:21:45.022Z,35.40
2022-09-03T13:25:57.277Z,35.00
2022-09-03T13:30:09.244Z,36.00
2022-09-03T13:34:21.398Z,34.40
2022-09-03T13:38:37.283Z,35.30
2022-09-03T13:42:45.694Z,36.40
2022-09-03T13:46:57.176Z,36.10
2022-09-03T13:51:10.447Z,36.00
2022-09-03T13:55:18.530Z,37.20
2022-09-03T13:59:32.425Z,37.70
2022-09-03T14:03:48.769Z,36.90
2022-09-03T14:08:09.853Z,37.80
2022-09-03T14:12:19.540Z,36.10
2022-09-03T14:16:35.473Z,34.20
2022-09-03T14:20:46.248Z,32.20
2022-09-03T14:24:55.657Z,30.40
2022-09-03T14:29:02.927Z,30.30
2022-09-03T14:33:17.239Z,32.00
2022-09-03T14:37:40.634Z,32.60
2022-09-03T14:42:01.685Z,31.60
2022-09-03T14:46:27.112Z,31.20
2022-09-03T14:50:45.492Z,30.90
2022-09-03T14:55:08.392Z,31.10
2022-09-03T14:59:29.584Z,30.10
2022-09-03T15:04:05.908Z,29.40
2022-09-03T15:08:19.627Z,29.90
2022-09-03T15:12:30.178Z,28.30
2022-09-03T15:16:48.328Z,27.40
2022-09-03T15:20:53.492Z,26.90
2022-09-03T15:25:08.342Z,27.70
2022-09-03T15:29:31.382Z,27.90
2022-09-03T15:33:41.830Z,27.90
2022-09-03T15:37:48.587Z,28.30
2022-09-03T15:41:56.510Z,27.70
2022-09-03T15:46:08.100Z,27.00
2022-09-03T15:50:20.395Z,25.90
2022-09-03T15:54:36.673Z,25.30
2022-09-03T15:58:45.913Z,24.60
2022-09-03T16:02:54.749Z,24.10
2022-09-03T16:07:04.267Z,23.70
2022-09-03T16:11:12.244Z,23.30
2022-09-03T16:15:21.058Z,23.00
2022-09-03T16:19:29.995Z,22.80
2022-09-03T16:23:42.467Z,22.80
2022-09-03T16:27:57.503Z,22.60
2022-09-03T16:32:22.023Z,22.40
2022-09-03T16:36:44.859Z,22.40
2022-09-03T16:40:57.232Z,22.20
2022-09-03T16:45:11.959Z,22.10
2022-09-03T16:49:38.502Z,22.00
2022-09-03T16:54:05.037Z,21.90
2022-09-03T16:58:18.248Z,21.80
2022-09-03T17:02:42.315Z,21.60
2022-09-03T17:07:07.303Z,21.30
2022-09-03T17:11:24.124Z,21.10
2022-09-03T17:15:39.809Z,20.80
2022-09-03T17:19:52.934Z,20.60
2022-09-03T17:24:11.338Z,20.30
2022-09-03T17:28:26.017Z,20.10
2022-09-03T17:32:53.095Z,19.90
2022-09-03T17:37:15.617Z,19.70
2022-09-03T17:41:25.226Z,19.60
2022-09-03T17:45:40.797Z,19.50
2022-09-03T17:50:14.372Z,19.40
2022-09-03T17:54:39.782Z,19.40
2022-09-03T17:58:46.271Z,19.50
2022-09-03T18:02:57.911Z,19.50
2022-09-03T18:07:10.762Z,19.40
2022-09-03T18:11:22.155Z,19.30
2022-09-03T18:15:30.633Z,19.30
2022-09-03T18:19:55.617Z,19.10
2022-09-03T18:24:30.131Z,19.00
2022-09-03T18:28:57.831Z,18.90
2022-09-03T18:33:19.742Z,18.80
2022-09-03T18:37:43.801Z,18.60
2022-09-03T18:42:20.278Z,18.50
2022-09-03T18:51:46.561Z,18.10
2022-09-03T18:56:21.622Z,17.90
2022-09-03T19:00:55.040Z,17.70
2022-09-03T19:05:30.046Z,17.60
2022-09-03T19:10:15.550Z,17.50
2022-09-03T19:14:51.995Z,17.50
2022-09-03T19:19:35.816Z,17.40
2022-09-03T19:24:02.311Z,17.20
2022-09-03T19:28:35.764Z,17.10
2022-09-03T19:33:04.624Z,17.00
2022-09-03T19:37:33.052Z,16.90
2022-09-03T19:42:02.334Z,16.80
2022-09-03T19:46:35.350Z,16.70
2022-09-03T19:51:03.993Z,16.50
2022-09-03T19:55:27.594Z,16.50
2022-09-03T19:59:58.326Z,16.40
2022-09-03T20:04:35.791Z,16.40
2022-09-03T20:08:57.055Z,16.40
2022-09-03T20:13:17.877Z,16.30
2022-09-03T20:17:30.450Z,16.20
2022-09-03T20:21:40.754Z,16.20
2022-09-03T20:26:13.822Z,16.10
2022-09-03T20:30:21.616Z,16.00
2022-09-03T20:34:37.215Z,16.00
2022-09-03T20:39:01.299Z,15.90
2022-09-03T20:43:29.853Z,15.90
2022-09-03T20:48:02.071Z,15.80
2022-09-03T20:52:12.497Z,15.70
2022-09-03T20:56:22.845Z,15.80
2022-09-03T21:00:26.622Z,15.80
2022-09-03T21:04:47.498Z,15.80
2022-09-03T21:09:02.672Z,15.80
2022-09-03T21:13:12.872Z,15.80
2022-09-03T21:17:45.052Z,15.80
2022-09-03T21:21:59.647Z,15.80
2022-09-03T21:26:09.073Z,15.80
2022-09-03T21:30:16.145Z,15.80
2022-09-03T21:34:22.225Z,15.80
2022-09-03T21:38:29.389Z,15.80
2022-09-03T21:42:36.683Z,15.90
2022-09-03T21:46:46.393Z,15.90
2022-09-03T21:50:55.249Z,16.00
2022-09-03T21:55:00.105Z,16.10
2022-09-03T21:59:09.667Z,16.10
2022-09-03T22:03:13.949Z,16.20
2022-09-03T22:07:24.873Z,16.20
2022-09-03T22:11:34.357Z,16.20
2022-09-03T22:15:38.333Z,16.20
2022-09-03T22:19:42.447Z,16.20
2022-09-03T22:23:58.403Z,16.20
2022-09-03T22:28:11.983Z,16.20
2022-09-03T22:32:28.709Z,16.20
2022-09-03T22:36:40.166Z,16.30
2022-09-03T22:40:52.544Z,16.20
2022-09-03T22:45:21.644Z,16.20
2022-09-03T22:49:36.341Z,16.20
2022-09-03T22:54:01.021Z,16.30
2022-09-03T22:58:06.526Z,16.30
2022-09-03T23:02:16.457Z,16.30
2022-09-03T23:06:27.274Z,16.40
2022-09-03T23:10:33.421Z,16.30
2022-09-03T23:14:41.490Z,16.40
2022-09-03T23:18:48.210Z,16.50
2022-09-03T23:22:59.554Z,16.50
2022-09-03T23:27:08.603Z,16.60
2022-09-03T23:31:22.199Z,16.60
2022-09-03T23:35:30.141Z,16.60
2022-09-03T23:39:56.090Z,16.60
2022-09-03T23:44:08.508Z,16.60
2022-09-03T23:48:23.102Z,16.50
2022-09-03T23:52:56.169Z,16.60
2022-09-03T23:57:08.329Z,16.60
